Kemptville, Canada
Current Conditions -  °F | °C
As of 8:00 AM on Wednesday 22 Oct 2014 (Local Time) from CYOW Reporting Station
Broken Clouds Broken Clouds  
Wind Chill:   Ceiling: 6000
Heat Index:   Visibility: 15mi
Dew Point:   Wind: 8mph
Humidity: 76%   Direction: 360°N
Pressure: 30.26"   Gusts: NA
Location:  45.02°N, 75.65°W
Report Text: CYOW 221200Z 36007KT 15SM FEW030 BKN060 05/01 A3026 RMK SC2SC5 SLP250
Loading
Personal Weather Stations






























Interactive Weather Map
Tropical Storm Tracking
New forecast layout! Learn more

10-Day Weather Forecast

Advertisements
Track Severe Weather on mobile